Time;durP1;ratioP1;P1;durP2;ratioP2;P2;SDS_P1;SDS_P2;PMS_P1;PMS_P2;Temp;Humidity;BMP_temperature;BMP_pressure;BME280_temperature;BME280_humidity;BME280_pressure;Samples;Min_cycle;Max_cycle;Signal;HPM_P1;HPM_P2
2021/03/06 00:01:24;;;;;;;;;;;18.80;36.50;;;;;;500372;237;1131;-72
2021/03/06 00:03:25;;;;;;;;;;;18.90;36.50;;;;;;500438;237;997;-72
2021/03/06 00:05:26;;;;;;;;;;;18.80;36.40;;;;;;500430;237;940;-72
2021/03/06 00:07:27;;;;;;;;;;;18.90;36.40;;;;;;500385;237;1113;-72
2021/03/06 00:09:29;;;;;;;;;;;18.80;36.50;;;;;;500473;237;944;-72
2021/03/06 00:11:30;;;;;;;;;;;18.90;36.30;;;;;;500349;237;1038;-72
2021/03/06 00:13:31;;;;;;;;;;;18.90;36.40;;;;;;500448;237;949;-72
2021/03/06 00:15:33;;;;;;;;;;;18.90;36.40;;;;;;500417;237;966;-72
2021/03/06 00:17:34;;;;;;;;;;;18.90;36.40;;;;;;500380;237;2196;-72
2021/03/06 00:19:35;;;;;;;;;;;18.80;36.40;;;;;;500423;237;1059;-72
2021/03/06 00:21:36;;;;;;;;;;;18.80;36.50;;;;;;500375;237;1113;-72
2021/03/06 00:23:38;;;;;;;;;;;18.70;36.40;;;;;;500489;237;1176;-72
2021/03/06 00:25:39;;;;;;;;;;;18.80;36.50;;;;;;500383;237;1210;-72
2021/03/06 00:27:40;;;;;;;;;;;18.70;36.40;;;;;;500393;237;1160;-72
2021/03/06 00:29:42;;;;;;;;;;;18.70;36.50;;;;;;500385;237;1041;-72
2021/03/06 00:31:43;;;;;;;;;;;18.70;36.50;;;;;;500391;237;1213;-72
2021/03/06 00:33:44;;;;;;;;;;;18.70;36.40;;;;;;500451;237;935;-72
2021/03/06 00:35:45;;;;;;;;;;;18.70;36.50;;;;;;500429;237;1054;-72
2021/03/06 00:37:47;;;;;;;;;;;18.90;36.20;;;;;;500304;237;2184;-72
2021/03/06 00:39:48;;;;;;;;;;;18.80;36.20;;;;;;500405;237;1012;-72
2021/03/06 00:41:49;;;;;;;;;;;18.80;36.10;;;;;;500391;237;1226;-72
2021/03/06 00:43:51;;;;;;;;;;;18.70;36.30;;;;;;500436;237;947;-72
2021/03/06 00:45:52;;;;;;;;;;;18.70;36.40;;;;;;500463;237;956;-72
2021/03/06 00:47:53;;;;;;;;;;;18.70;35.70;;;;;;500371;237;982;-72
2021/03/06 00:49:54;;;;;;;;;;;18.70;36.50;;;;;;500421;237;1143;-73
2021/03/06 00:51:56;;;;;;;;;;;18.60;36.60;;;;;;500409;237;1071;-72
2021/03/06 00:53:57;;;;;;;;;;;18.70;36.50;;;;;;500433;237;1171;-72
2021/03/06 00:56:00;;;;;;;;;;;18.70;36.50;;;;;;500451;237;950;-72
2021/03/06 00:58:01;;;;;;;;;;;18.70;36.40;;;;;;500376;237;2180;-72
2021/03/06 01:00:02;;;;;;;;;;;18.70;36.40;;;;;;500417;237;1101;-72
2021/03/06 01:02:04;;;;;;;;;;;18.70;36.40;;;;;;500441;237;1023;-72
2021/03/06 01:04:05;;;;;;;;;;;18.60;36.50;;;;;;500462;237;960;-72
2021/03/06 01:06:07;;;;;;;;;;;18.70;36.50;;;;;;500380;237;1187;-72
2021/03/06 01:08:08;;;;;;;;;;;18.60;36.50;;;;;;500438;237;1179;-72
2021/03/06 01:10:09;;;;;;;;;;;18.60;36.50;;;;;;500461;237;997;-73
2021/03/06 01:12:10;;;;;;;;;;;18.60;36.40;;;;;;500394;237;960;-72
2021/03/06 01:14:12;;;;;;;;;;;18.60;36.40;;;;;;500525;237;989;-72
2021/03/06 01:16:13;;;;;;;;;;;18.70;36.50;;;;;;500382;237;938;-72
2021/03/06 01:18:14;;;;;;;;;;;18.60;36.40;;;;;;500398;237;2171;-72
2021/03/06 01:20:15;;;;;;;;;;;18.60;36.60;;;;;;500407;237;951;-72
2021/03/06 01:22:17;;;;;;;;;;;18.60;36.60;;;;;;500483;237;1403;-73
2021/03/06 01:24:18;;;;;;;;;;;18.60;36.60;;;;;;500531;237;1174;-72
2021/03/06 01:26:19;;;;;;;;;;;18.50;36.60;;;;;;500394;237;1423;-72
2021/03/06 01:28:21;;;;;;;;;;;18.60;36.50;;;;;;500428;237;1094;-72
2021/03/06 01:30:22;;;;;;;;;;;18.60;36.50;;;;;;500428;237;1585;-72
2021/03/06 01:32:23;;;;;;;;;;;18.60;36.50;;;;;;500327;237;1530;-72
2021/03/06 01:34:25;;;;;;;;;;;18.60;36.50;;;;;;500413;237;1023;-72
2021/03/06 01:36:26;;;;;;;;;;;18.50;36.00;;;;;;500491;237;1208;-72
2021/03/06 01:38:27;;;;;;;;;;;18.50;36.60;;;;;;500378;237;2184;-72
2021/03/06 01:40:28;;;;;;;;;;;18.50;36.60;;;;;;500375;237;1206;-72
2021/03/06 01:42:30;;;;;;;;;;;18.50;36.60;;;;;;500386;237;1090;-72
2021/03/06 01:44:31;;;;;;;;;;;18.50;36.60;;;;;;500450;237;956;-72
2021/03/06 01:46:32;;;;;;;;;;;18.60;36.50;;;;;;500371;237;1202;-72
2021/03/06 01:48:33;;;;;;;;;;;18.60;36.50;;;;;;500376;237;1031;-72
2021/03/06 01:50:35;;;;;;;;;;;18.60;36.50;;;;;;500310;237;1250;-72
2021/03/06 01:52:36;;;;;;;;;;;18.60;36.30;;;;;;500391;237;1154;-72
2021/03/06 01:54:37;;;;;;;;;;;18.60;36.40;;;;;;500428;237;1195;-72
2021/03/06 01:56:39;;;;;;;;;;;18.60;36.30;;;;;;500426;237;1348;-72
2021/03/06 01:58:40;;;;;;;;;;;18.60;36.40;;;;;;500356;237;2144;-72
2021/03/06 02:00:41;;;;;;;;;;;18.60;36.40;;;;;;500388;237;1179;-72
2021/03/06 02:02:42;;;;;;;;;;;18.60;36.40;;;;;;500468;237;1070;-72
2021/03/06 02:04:44;;;;;;;;;;;18.70;36.30;;;;;;500432;237;972;-72
2021/03/06 02:06:45;;;;;;;;;;;18.60;36.20;;;;;;500413;237;1218;-72
2021/03/06 02:08:46;;;;;;;;;;;18.60;36.40;;;;;;500397;237;1435;-72
2021/03/06 02:10:48;;;;;;;;;;;18.60;36.40;;;;;;500380;237;1239;-72
2021/03/06 02:12:49;;;;;;;;;;;18.60;36.30;;;;;;500438;237;1155;-72
2021/03/06 02:14:50;;;;;;;;;;;18.70;36.20;;;;;;500409;237;942;-72
2021/03/06 02:16:51;;;;;;;;;;;18.70;36.10;;;;;;500386;237;1097;-72
2021/03/06 02:18:53;;;;;;;;;;;18.70;36.20;;;;;;500369;237;2179;-72
2021/03/06 02:20:54;;;;;;;;;;;18.70;36.20;;;;;;500379;237;1215;-73
2021/03/06 02:22:55;;;;;;;;;;;18.70;36.20;;;;;;500496;237;1071;-72
2021/03/06 02:24:57;;;;;;;;;;;18.70;36.20;;;;;;500402;237;1175;-72
2021/03/06 02:26:58;;;;;;;;;;;18.60;36.00;;;;;;500368;237;1156;-72
2021/03/06 02:28:59;;;;;;;;;;;18.60;36.10;;;;;;500345;237;978;-72
2021/03/06 02:31:00;;;;;;;;;;;18.60;36.10;;;;;;500308;237;1041;-72
2021/03/06 02:33:02;;;;;;;;;;;18.70;36.30;;;;;;500394;237;989;-72
2021/03/06 02:35:03;;;;;;;;;;;18.70;36.20;;;;;;500444;237;947;-72
2021/03/06 02:37:05;;;;;;;;;;;18.70;36.30;;;;;;500349;237;1118;-72
2021/03/06 02:39:06;;;;;;;;;;;18.80;36.20;;;;;;500358;237;2176;-72
2021/03/06 02:41:07;;;;;;;;;;;18.70;36.20;;;;;;500335;237;1381;-72
2021/03/06 02:43:09;;;;;;;;;;;18.60;36.20;;;;;;500377;237;940;-72
2021/03/06 02:45:10;;;;;;;;;;;18.60;36.40;;;;;;500369;237;1305;-72
2021/03/06 02:47:11;;;;;;;;;;;18.60;36.40;;;;;;500401;237;1190;-72
2021/03/06 02:49:12;;;;;;;;;;;18.50;35.90;;;;;;500383;237;973;-72
2021/03/06 02:51:13;;;;;;;;;;;18.50;36.40;;;;;;500358;237;1253;-72
2021/03/06 02:53:15;;;;;;;;;;;18.50;36.60;;;;;;500356;237;974;-72
2021/03/06 02:55:16;;;;;;;;;;;18.50;36.70;;;;;;500423;237;1152;-72
2021/03/06 02:57:17;;;;;;;;;;;18.50;36.70;;;;;;500425;237;1211;-72
2021/03/06 02:59:19;;;;;;;;;;;18.40;36.70;;;;;;500376;237;2183;-72
2021/03/06 03:01:20;;;;;;;;;;;18.50;36.80;;;;;;500345;237;1209;-73
2021/03/06 03:03:21;;;;;;;;;;;18.60;36.60;;;;;;500415;237;918;-72
2021/03/06 03:05:23;;;;;;;;;;;18.50;36.60;;;;;;500378;237;999;-72
2021/03/06 03:07:24;;;;;;;;;;;18.50;36.60;;;;;;500379;237;1123;-72
2021/03/06 03:09:25;;;;;;;;;;;18.50;36.80;;;;;;500399;237;1170;-73
2021/03/06 03:11:26;;;;;;;;;;;18.40;36.70;;;;;;500376;237;1219;-72
2021/03/06 03:13:28;;;;;;;;;;;18.40;36.70;;;;;;500384;237;920;-73
2021/03/06 03:15:29;;;;;;;;;;;18.40;36.70;;;;;;500365;237;1209;-72
2021/03/06 03:17:30;;;;;;;;;;;18.50;36.60;;;;;;500363;237;1138;-73
2021/03/06 03:19:31;;;;;;;;;;;18.40;36.60;;;;;;500412;237;2180;-72
2021/03/06 03:21:33;;;;;;;;;;;18.40;36.70;;;;;;500365;237;1202;-72
2021/03/06 03:23:34;;;;;;;;;;;18.40;36.70;;;;;;500366;237;944;-72
2021/03/06 03:25:35;;;;;;;;;;;18.50;36.80;;;;;;500338;237;1197;-72
2021/03/06 03:27:37;;;;;;;;;;;18.40;36.70;;;;;;500341;237;1100;-72
2021/03/06 03:29:38;;;;;;;;;;;18.50;36.60;;;;;;500413;237;1020;-72
2021/03/06 03:31:39;;;;;;;;;;;18.40;36.60;;;;;;500351;237;1219;-72
2021/03/06 03:33:40;;;;;;;;;;;18.40;36.70;;;;;;500469;237;1107;-72
2021/03/06 03:35:42;;;;;;;;;;;18.50;36.10;;;;;;500416;237;1019;-72
2021/03/06 03:37:43;;;;;;;;;;;18.50;36.80;;;;;;500366;237;2121;-72
2021/03/06 03:39:45;;;;;;;;;;;18.40;36.80;;;;;;500381;237;1121;-72
2021/03/06 03:41:46;;;;;;;;;;;18.50;36.80;;;;;;500430;237;1023;-72
2021/03/06 03:43:47;;;;;;;;;;;18.40;36.90;;;;;;500412;237;979;-72
2021/03/06 03:45:48;;;;;;;;;;;18.40;36.80;;;;;;500470;237;997;-72
2021/03/06 03:47:50;;;;;;;;;;;18.40;36.80;;;;;;500383;237;942;-72
2021/03/06 03:49:51;;;;;;;;;;;18.40;36.70;;;;;;500386;237;945;-72
2021/03/06 03:51:52;;;;;;;;;;;18.40;36.80;;;;;;500328;237;1038;-72
2021/03/06 03:53:54;;;;;;;;;;;18.40;36.80;;;;;;500409;237;1076;-72
2021/03/06 03:55:55;;;;;;;;;;;18.30;36.80;;;;;;500348;237;1222;-72
2021/03/06 03:57:56;;;;;;;;;;;18.30;36.80;;;;;;500412;237;2167;-72
2021/03/06 03:59:57;;;;;;;;;;;18.40;36.90;;;;;;500416;237;965;-72
2021/03/06 04:01:59;;;;;;;;;;;18.40;36.80;;;;;;500334;237;1208;-72
2021/03/06 04:04:00;;;;;;;;;;;18.40;36.80;;;;;;500389;237;986;-72
2021/03/06 04:06:01;;;;;;;;;;;18.40;36.80;;;;;;500319;237;1145;-72
2021/03/06 04:08:02;;;;;;;;;;;18.40;37.00;;;;;;500452;237;964;-72
2021/03/06 04:10:04;;;;;;;;;;;18.30;37.00;;;;;;500383;237;1138;-72
2021/03/06 04:12:05;;;;;;;;;;;18.30;36.80;;;;;;500506;237;1194;-73
2021/03/06 04:14:06;;;;;;;;;;;18.40;36.90;;;;;;500362;237;956;-72
2021/03/06 04:16:08;;;;;;;;;;;18.40;36.80;;;;;;500294;237;1226;-72
2021/03/06 04:18:09;;;;;;;;;;;18.40;36.70;;;;;;500366;237;2181;-72
2021/03/06 04:20:10;;;;;;;;;;;18.40;36.70;;;;;;500407;237;1038;-72
2021/03/06 04:22:12;;;;;;;;;;;18.40;36.00;;;;;;500443;237;1043;-73
2021/03/06 04:24:13;;;;;;;;;;;18.50;36.60;;;;;;500398;237;994;-72
2021/03/06 04:26:14;;;;;;;;;;;18.60;36.50;;;;;;500347;237;1098;-72
2021/03/06 04:28:15;;;;;;;;;;;18.60;36.40;;;;;;500354;237;1050;-72
2021/03/06 04:30:17;;;;;;;;;;;18.60;36.40;;;;;;500329;237;1093;-72
2021/03/06 04:32:18;;;;;;;;;;;18.70;36.30;;;;;;500310;237;1005;-72
2021/03/06 04:34:19;;;;;;;;;;;18.70;36.30;;;;;;500444;237;993;-72
2021/03/06 04:36:21;;;;;;;;;;;18.60;36.40;;;;;;500362;237;1076;-72
2021/03/06 04:38:22;;;;;;;;;;;18.80;36.10;;;;;;500461;237;2128;-72
2021/03/06 04:40:23;;;;;;;;;;;18.70;36.20;;;;;;500380;237;1283;-72
2021/03/06 04:42:24;;;;;;;;;;;18.70;36.20;;;;;;500387;237;996;-72
2021/03/06 04:44:26;;;;;;;;;;;18.70;36.30;;;;;;500352;237;1081;-72
2021/03/06 04:46:27;;;;;;;;;;;18.60;36.30;;;;;;500306;237;1322;-72
2021/03/06 04:48:28;;;;;;;;;;;18.60;36.30;;;;;;500376;237;1093;-72
2021/03/06 04:50:30;;;;;;;;;;;18.60;36.40;;;;;;500422;237;973;-72
2021/03/06 04:52:31;;;;;;;;;;;18.60;36.40;;;;;;500509;237;1241;-72
2021/03/06 04:54:32;;;;;;;;;;;18.50;36.40;;;;;;500428;237;933;-72
2021/03/06 04:56:33;;;;;;;;;;;18.60;36.50;;;;;;500310;237;1105;-72
2021/03/06 04:58:35;;;;;;;;;;;18.60;36.40;;;;;;500370;237;2136;-72
2021/03/06 05:00:36;;;;;;;;;;;18.50;36.50;;;;;;500399;237;1244;-72
2021/03/06 05:02:37;;;;;;;;;;;18.60;36.40;;;;;;500467;237;1030;-72
2021/03/06 05:04:39;;;;;;;;;;;18.60;36.40;;;;;;500490;237;1061;-72
2021/03/06 05:06:40;;;;;;;;;;;18.60;35.80;;;;;;500422;237;1228;-72
2021/03/06 05:08:41;;;;;;;;;;;18.50;36.40;;;;;;500397;237;913;-73
2021/03/06 05:10:42;;;;;;;;;;;18.60;36.40;;;;;;500434;237;1196;-72
2021/03/06 05:12:44;;;;;;;;;;;18.70;36.40;;;;;;500449;237;1470;-72
2021/03/06 05:14:45;;;;;;;;;;;18.60;36.40;;;;;;500396;237;963;-72
2021/03/06 05:16:46;;;;;;;;;;;18.60;36.30;;;;;;500342;237;1219;-72
2021/03/06 05:18:47;;;;;;;;;;;18.60;36.40;;;;;;500426;237;2132;-72
2021/03/06 05:20:49;;;;;;;;;;;18.60;36.40;;;;;;500360;237;1241;-72
2021/03/06 05:22:50;;;;;;;;;;;18.50;36.40;;;;;;500452;237;1062;-72
2021/03/06 05:24:51;;;;;;;;;;;18.60;36.60;;;;;;500428;237;1041;-73
2021/03/06 05:27:01;;;;;;;;;;;18.50;36.50;;;;;;500337;237;1112;-72
2021/03/06 05:29:03;;;;;;;;;;;18.60;36.40;;;;;;500356;237;965;-72
2021/03/06 05:31:04;;;;;;;;;;;18.60;36.40;;;;;;500420;237;1198;-72
2021/03/06 05:33:05;;;;;;;;;;;18.70;36.40;;;;;;500449;237;1029;-72
2021/03/06 05:35:06;;;;;;;;;;;18.60;36.40;;;;;;500390;237;1081;-72
2021/03/06 05:37:08;;;;;;;;;;;18.60;36.40;;;;;;500324;237;1136;-72
2021/03/06 05:39:09;;;;;;;;;;;18.60;36.50;;;;;;500404;237;2183;-72
2021/03/06 05:41:10;;;;;;;;;;;18.60;36.40;;;;;;500373;237;1251;-72
2021/03/06 05:43:12;;;;;;;;;;;18.50;36.40;;;;;;500477;237;928;-73
2021/03/06 05:45:13;;;;;;;;;;;18.70;36.30;;;;;;500411;237;1087;-72
2021/03/06 05:47:14;;;;;;;;;;;18.60;36.30;;;;;;500342;237;1468;-72
2021/03/06 05:49:15;;;;;;;;;;;18.60;36.30;;;;;;500412;237;960;-72
2021/03/06 05:51:17;;;;;;;;;;;18.60;36.00;;;;;;500450;237;1149;-73
2021/03/06 05:53:18;;;;;;;;;;;18.60;36.40;;;;;;500441;237;1062;-72
2021/03/06 05:55:19;;;;;;;;;;;18.60;36.20;;;;;;500392;237;1029;-72
2021/03/06 05:57:21;;;;;;;;;;;18.70;36.20;;;;;;500420;237;1163;-72
2021/03/06 05:59:22;;;;;;;;;;;18.60;36.30;;;;;;500531;237;2133;-72
2021/03/06 06:01:23;;;;;;;;;;;18.60;36.30;;;;;;500415;237;1106;-72
2021/03/06 06:03:24;;;;;;;;;;;18.60;36.40;;;;;;500448;237;918;-72
2021/03/06 06:05:26;;;;;;;;;;;18.60;36.40;;;;;;500354;237;1054;-72
2021/03/06 06:07:27;;;;;;;;;;;18.60;36.50;;;;;;500445;237;1108;-72
2021/03/06 06:09:28;;;;;;;;;;;18.60;36.30;;;;;;500384;237;1071;-72
2021/03/06 06:11:29;;;;;;;;;;;18.60;36.40;;;;;;500363;237;1121;-73
2021/03/06 06:13:31;;;;;;;;;;;18.50;36.40;;;;;;500416;237;981;-72
2021/03/06 06:15:32;;;;;;;;;;;18.50;36.50;;;;;;500398;237;1202;-72
2021/03/06 06:17:33;;;;;;;;;;;18.60;36.40;;;;;;500390;237;1139;-72
2021/03/06 06:19:35;;;;;;;;;;;18.50;36.40;;;;;;500410;237;2180;-72
2021/03/06 06:21:36;;;;;;;;;;;18.50;36.50;;;;;;500352;237;1298;-72
2021/03/06 06:23:37;;;;;;;;;;;18.50;36.50;;;;;;500443;237;966;-72
2021/03/06 06:25:38;;;;;;;;;;;18.50;36.50;;;;;;500415;237;1196;-72
2021/03/06 06:27:40;;;;;;;;;;;18.60;36.40;;;;;;500361;237;1130;-72
2021/03/06 06:29:41;;;;;;;;;;;18.70;36.20;;;;;;500407;237;988;-72
2021/03/06 06:31:42;;;;;;;;;;;18.70;36.10;;;;;;500332;237;1156;-72
2021/03/06 06:33:44;;;;;;;;;;;18.70;36.10;;;;;;500350;237;1002;-72
2021/03/06 06:35:45;;;;;;;;;;;18.70;35.70;;;;;;500347;237;909;-72
2021/03/06 06:37:46;;;;;;;;;;;18.90;36.00;;;;;;500298;237;1070;-73
2021/03/06 06:39:47;;;;;;;;;;;18.80;35.90;;;;;;500507;237;2180;-72
2021/03/06 06:41:49;;;;;;;;;;;18.80;36.00;;;;;;500370;237;1067;-72
2021/03/06 06:43:50;;;;;;;;;;;18.80;36.00;;;;;;500397;237;1001;-72
2021/03/06 06:45:51;;;;;;;;;;;18.80;36.00;;;;;;500370;237;966;-72
2021/03/06 06:47:53;;;;;;;;;;;18.80;36.00;;;;;;500398;237;919;-72
2021/03/06 06:49:54;;;;;;;;;;;18.80;36.10;;;;;;500386;237;1051;-72
2021/03/06 06:51:55;;;;;;;;;;;18.80;36.10;;;;;;500501;237;992;-72
2021/03/06 06:53:56;;;;;;;;;;;18.80;36.20;;;;;;500400;237;1071;-72
2021/03/06 06:55:58;;;;;;;;;;;18.80;36.10;;;;;;500376;237;1048;-72
2021/03/06 06:57:59;;;;;;;;;;;18.80;36.10;;;;;;500308;237;1165;-73
2021/03/06 07:00:01;;;;;;;;;;;18.80;35.90;;;;;;500387;237;2188;-72
2021/03/06 07:02:02;;;;;;;;;;;18.90;36.00;;;;;;500313;237;976;-72
2021/03/06 07:04:03;;;;;;;;;;;18.80;36.10;;;;;;500374;237;1002;-72
2021/03/06 07:06:04;;;;;;;;;;;18.80;36.10;;;;;;500424;237;1029;-72
2021/03/06 07:08:06;;;;;;;;;;;18.80;36.10;;;;;;500313;237;957;-72
2021/03/06 07:10:07;;;;;;;;;;;18.80;36.00;;;;;;500320;237;1221;-72
2021/03/06 07:12:08;;;;;;;;;;;18.80;36.10;;;;;;500326;237;998;-72
2021/03/06 07:14:09;;;;;;;;;;;18.80;36.00;;;;;;500378;237;1140;-72
2021/03/06 07:16:11;;;;;;;;;;;18.90;36.10;;;;;;500337;237;1085;-72
2021/03/06 07:18:12;;;;;;;;;;;18.80;36.00;;;;;;500421;237;997;-72
2021/03/06 07:20:13;;;;;;;;;;;18.90;35.90;;;;;;500345;237;2128;-72
2021/03/06 07:22:14;;;;;;;;;;;18.80;36.00;;;;;;500432;237;1071;-72
2021/03/06 07:24:16;;;;;;;;;;;18.80;35.60;;;;;;500397;237;948;-72
2021/03/06 07:26:17;;;;;;;;;;;18.80;36.00;;;;;;500308;237;1087;-72
2021/03/06 07:28:18;;;;;;;;;;;18.80;36.10;;;;;;500293;237;1137;-72
2021/03/06 07:30:19;;;;;;;;;;;18.90;36.10;;;;;;500395;237;1025;-72
2021/03/06 07:32:21;;;;;;;;;;;19.00;36.00;;;;;;500333;237;1092;-72
2021/03/06 07:34:22;;;;;;;;;;;19.00;35.90;;;;;;500342;237;1065;-72
2021/03/06 07:36:23;;;;;;;;;;;18.90;36.00;;;;;;500194;237;1198;-72
2021/03/06 07:38:25;;;;;;;;;;;18.90;36.10;;;;;;500488;237;976;-72
2021/03/06 07:40:26;;;;;;;;;;;18.90;36.10;;;;;;500325;237;2137;-72
2021/03/06 07:42:27;;;;;;;;;;;18.90;36.00;;;;;;500338;237;1137;-72
2021/03/06 07:44:28;;;;;;;;;;;19.10;35.80;;;;;;500339;237;1109;-72
2021/03/06 07:46:30;;;;;;;;;;;19.00;35.80;;;;;;500354;237;1050;-72
2021/03/06 07:48:31;;;;;;;;;;;19.00;35.90;;;;;;500467;237;1055;-72
2021/03/06 07:50:32;;;;;;;;;;;19.10;35.90;;;;;;500325;237;937;-72
2021/03/06 07:52:34;;;;;;;;;;;19.00;35.90;;;;;;500219;237;988;-72
2021/03/06 07:54:35;;;;;;;;;;;19.10;35.90;;;;;;500275;237;1057;-72
2021/03/06 07:56:36;;;;;;;;;;;19.00;35.80;;;;;;500263;237;965;-72
2021/03/06 07:58:37;;;;;;;;;;;18.90;35.90;;;;;;500363;234;1272;-72
2021/03/06 08:00:39;;;;;;;;;;;18.90;35.90;;;;;;500283;237;2188;-72
2021/03/06 08:02:40;;;;;;;;;;;19.00;36.00;;;;;;500361;237;1032;-72
2021/03/06 08:04:41;;;;;;;;;;;19.10;35.80;;;;;;500301;237;927;-72
2021/03/06 08:06:43;;;;;;;;;;;19.00;35.80;;;;;;500224;237;1059;-72
2021/03/06 08:08:44;;;;;;;;;;;19.10;35.10;;;;;;500216;237;1066;-72
2021/03/06 08:10:45;;;;;;;;;;;19.10;35.50;;;;;;500349;237;1072;-73
2021/03/06 08:12:47;;;;;;;;;;;19.10;35.70;;;;;;500216;237;1063;-72
2021/03/06 08:14:48;;;;;;;;;;;19.20;35.50;;;;;;500301;237;1135;-72
2021/03/06 08:16:49;;;;;;;;;;;19.20;35.50;;;;;;500306;237;1149;-72
2021/03/06 08:18:50;;;;;;;;;;;19.20;35.50;;;;;;500311;237;1036;-73
2021/03/06 08:20:52;;;;;;;;;;;19.30;35.30;;;;;;500199;237;2183;-72
2021/03/06 08:22:53;;;;;;;;;;;19.20;35.50;;;;;;500351;237;1031;-73
2021/03/06 08:24:54;;;;;;;;;;;19.20;35.40;;;;;;500354;237;958;-72
2021/03/06 08:26:56;;;;;;;;;;;19.20;35.50;;;;;;500184;237;1066;-72
2021/03/06 08:28:57;;;;;;;;;;;19.20;35.40;;;;;;500420;237;1152;-72
2021/03/06 08:30:58;;;;;;;;;;;19.30;35.30;;;;;;500315;237;1058;-73
2021/03/06 08:32:59;;;;;;;;;;;19.20;35.40;;;;;;500237;237;1057;-72
2021/03/06 08:35:01;;;;;;;;;;;19.30;35.30;;;;;;500281;237;948;-72
2021/03/06 08:37:02;;;;;;;;;;;19.50;35.20;;;;;;500285;237;1057;-72
2021/03/06 08:39:04;;;;;;;;;;;19.50;35.00;;;;;;500270;237;1002;-73
2021/03/06 08:41:04;;;;;;;;;;;19.50;34.90;;;;;;500396;237;2151;-72
2021/03/06 08:43:06;;;;;;;;;;;19.40;35.00;;;;;;500273;237;1006;-72
2021/03/06 08:45:07;;;;;;;;;;;19.40;35.10;;;;;;500340;237;1154;-73
2021/03/06 08:47:08;;;;;;;;;;;19.40;34.80;;;;;;500244;237;1117;-72
2021/03/06 08:49:10;;;;;;;;;;;19.40;35.30;;;;;;500370;237;1048;-72
2021/03/06 08:51:11;;;;;;;;;;;19.40;35.30;;;;;;500303;237;1524;-72
2021/03/06 08:53:12;;;;;;;;;;;19.50;35.30;;;;;;500234;237;977;-72
2021/03/06 08:55:13;;;;;;;;;;;19.50;35.20;;;;;;500368;237;961;-72
2021/03/06 08:57:15;;;;;;;;;;;19.50;35.20;;;;;;500415;237;1069;-73
2021/03/06 08:59:16;;;;;;;;;;;19.50;35.20;;;;;;500330;237;1129;-72
2021/03/06 09:01:17;;;;;;;;;;;19.50;35.20;;;;;;500304;237;2183;-72
2021/03/06 09:03:19;;;;;;;;;;;19.60;35.10;;;;;;500405;237;1091;-73
2021/03/06 09:05:20;;;;;;;;;;;19.50;35.10;;;;;;500319;237;1022;-72
2021/03/06 09:07:21;;;;;;;;;;;19.60;35.00;;;;;;500319;237;958;-72
2021/03/06 09:09:22;;;;;;;;;;;19.60;34.40;;;;;;500325;237;965;-72
2021/03/06 09:11:24;;;;;;;;;;;19.60;35.20;;;;;;500341;237;1142;-72
2021/03/06 09:13:25;;;;;;;;;;;19.60;35.10;;;;;;500319;237;1311;-73
2021/03/06 09:15:26;;;;;;;;;;;19.70;35.30;;;;;;500413;237;1144;-72
2021/03/06 09:17:27;;;;;;;;;;;19.70;35.10;;;;;;500431;237;960;-72
2021/03/06 09:19:29;;;;;;;;;;;19.70;35.10;;;;;;500388;237;1010;-73
2021/03/06 09:21:30;;;;;;;;;;;19.80;35.10;;;;;;500298;237;2176;-72
2021/03/06 09:23:31;;;;;;;;;;;19.80;34.80;;;;;;500428;237;963;-72
2021/03/06 09:25:33;;;;;;;;;;;19.80;34.90;;;;;;500355;237;1076;-72
2021/03/06 09:27:34;;;;;;;;;;;19.80;35.00;;;;;;500353;237;1032;-72
2021/03/06 09:29:35;;;;;;;;;;;19.80;34.90;;;;;;500386;234;1293;-72
2021/03/06 09:31:37;;;;;;;;;;;19.80;34.80;;;;;;500254;237;1092;-72
2021/03/06 09:33:38;;;;;;;;;;;19.90;34.80;;;;;;500351;237;1068;-72
2021/03/06 09:35:39;;;;;;;;;;;19.90;34.70;;;;;;500344;237;947;-72
2021/03/06 09:37:40;;;;;;;;;;;19.90;34.70;;;;;;500479;237;1028;-72
2021/03/06 09:39:42;;;;;;;;;;;19.90;34.70;;;;;;500287;237;1104;-72
2021/03/06 09:41:43;;;;;;;;;;;20.00;34.70;;;;;;500274;237;2101;-72
2021/03/06 09:43:44;;;;;;;;;;;20.00;34.60;;;;;;500318;237;1049;-72
2021/03/06 09:45:45;;;;;;;;;;;20.00;34.60;;;;;;500325;237;1193;-72
2021/03/06 09:47:47;;;;;;;;;;;20.00;34.50;;;;;;500397;237;1146;-72
2021/03/06 09:49:48;;;;;;;;;;;20.00;34.50;;;;;;500361;237;1043;-72
2021/03/06 09:51:50;;;;;;;;;;;20.10;34.60;;;;;;500348;237;1227;-72
2021/03/06 09:53:51;;;;;;;;;;;20.10;34.60;;;;;;500338;237;1362;-72
2021/03/06 09:55:52;;;;;;;;;;;20.10;34.00;;;;;;500343;237;1042;-72
2021/03/06 09:57:54;;;;;;;;;;;20.10;34.40;;;;;;500366;237;1129;-72
2021/03/06 09:59:55;;;;;;;;;;;20.10;34.50;;;;;;500365;237;2151;-72
2021/03/06 10:01:56;;;;;;;;;;;20.10;34.50;;;;;;500330;237;1188;-72
2021/03/06 10:03:57;;;;;;;;;;;20.10;34.40;;;;;;500363;237;1086;-73
2021/03/06 10:05:59;;;;;;;;;;;20.10;34.40;;;;;;500336;237;975;-72
2021/03/06 10:08:00;;;;;;;;;;;20.10;34.30;;;;;;500306;237;998;-72
2021/03/06 10:10:01;;;;;;;;;;;20.20;34.30;;;;;;500354;237;1072;-72
2021/03/06 10:12:02;;;;;;;;;;;20.20;34.40;;;;;;500254;237;1053;-72
2021/03/06 10:14:04;;;;;;;;;;;20.10;34.40;;;;;;500327;237;1046;-73
2021/03/06 10:16:05;;;;;;;;;;;20.20;34.40;;;;;;500301;237;1191;-72
2021/03/06 10:18:06;;;;;;;;;;;20.20;34.30;;;;;;500317;237;976;-73
2021/03/06 10:20:08;;;;;;;;;;;20.20;34.30;;;;;;500347;237;2188;-72
2021/03/06 10:22:09;;;;;;;;;;;20.30;34.30;;;;;;500487;237;1096;-72
2021/03/06 10:24:11;;;;;;;;;;;20.20;34.30;;;;;;500405;237;1155;-72
2021/03/06 10:26:12;;;;;;;;;;;20.20;34.30;;;;;;500346;237;1039;-72
2021/03/06 10:28:14;;;;;;;;;;;20.30;34.30;;;;;;500256;237;976;-72
2021/03/06 10:30:15;;;;;;;;;;;20.30;34.40;;;;;;500263;237;1345;-72
2021/03/06 10:32:16;;;;;;;;;;;20.20;34.30;;;;;;500194;237;1103;-72
2021/03/06 10:34:17;;;;;;;;;;;20.30;34.20;;;;;;500422;237;1279;-72
2021/03/06 10:36:19;;;;;;;;;;;20.30;34.20;;;;;;500251;237;1078;-73
2021/03/06 10:38:20;;;;;;;;;;;20.40;33.80;;;;;;500272;237;966;-73
2021/03/06 10:40:21;;;;;;;;;;;20.30;34.10;;;;;;500251;237;2188;-72
2021/03/06 10:42:22;;;;;;;;;;;20.40;34.10;;;;;;500292;237;1185;-72
2021/03/06 10:44:24;;;;;;;;;;;20.40;34.10;;;;;;500406;237;1013;-72
2021/03/06 10:46:25;;;;;;;;;;;20.40;34.10;;;;;;500335;237;1171;-72
2021/03/06 10:48:26;;;;;;;;;;;20.30;34.20;;;;;;500345;237;942;-72
2021/03/06 10:50:29;;;;;;;;;;;20.20;34.10;;;;;;500342;237;1013;-72
2021/03/06 10:52:29;;;;;;;;;;;20.20;34.20;;;;;;500359;237;1418;-73
2021/03/06 10:54:30;;;;;;;;;;;20.30;34.20;;;;;;500287;237;963;-72
2021/03/06 10:56:31;;;;;;;;;;;20.30;34.10;;;;;;500296;237;1170;-72
2021/03/06 10:58:33;;;;;;;;;;;20.30;34.00;;;;;;500338;237;1034;-73
2021/03/06 11:00:34;;;;;;;;;;;20.30;34.10;;;;;;500365;237;2164;-72
2021/03/06 11:02:35;;;;;;;;;;;20.20;34.10;;;;;;500349;237;1074;-72
2021/03/06 11:04:37;;;;;;;;;;;20.20;34.20;;;;;;500362;237;960;-72
2021/03/06 11:06:38;;;;;;;;;;;20.30;34.10;;;;;;500285;237;1214;-72
2021/03/06 11:08:40;;;;;;;;;;;20.30;34.10;;;;;;500343;237;969;-72
2021/03/06 11:10:41;;;;;;;;;;;20.20;34.10;;;;;;500302;237;1096;-72
2021/03/06 11:12:42;;;;;;;;;;;20.40;34.10;;;;;;500267;237;1071;-72
2021/03/06 11:14:43;;;;;;;;;;;20.20;34.10;;;;;;500374;237;956;-72
2021/03/06 11:16:45;;;;;;;;;;;20.30;34.20;;;;;;500369;237;1194;-73
2021/03/06 11:18:46;;;;;;;;;;;20.40;34.00;;;;;;500335;237;934;-72
2021/03/06 11:20:48;;;;;;;;;;;20.40;33.90;;;;;;500337;237;2147;-72
2021/03/06 11:22:49;;;;;;;;;;;20.50;33.90;;;;;;500338;237;1052;-73
2021/03/06 11:24:51;;;;;;;;;;;20.50;33.60;;;;;;500338;237;951;-72
2021/03/06 11:26:52;;;;;;;;;;;20.50;33.80;;;;;;500198;237;1223;-72
2021/03/06 11:28:54;;;;;;;;;;;20.60;33.90;;;;;;500293;237;1075;-72
2021/03/06 11:30:55;;;;;;;;;;;20.60;33.90;;;;;;500360;237;1173;-72
2021/03/06 11:32:56;;;;;;;;;;;20.50;34.10;;;;;;500261;237;981;-73
2021/03/06 11:34:57;;;;;;;;;;;20.60;34.00;;;;;;500326;237;981;-72
2021/03/06 11:36:59;;;;;;;;;;;20.60;33.90;;;;;;500335;237;1218;-73
2021/03/06 11:39:00;;;;;;;;;;;20.70;33.80;;;;;;500360;237;959;-72
2021/03/06 11:41:01;;;;;;;;;;;20.70;33.80;;;;;;500273;237;2163;-72
2021/03/06 11:43:03;;;;;;;;;;;20.70;33.90;;;;;;500353;237;997;-72
2021/03/06 11:45:04;;;;;;;;;;;20.60;34.00;;;;;;500388;237;962;-72
2021/03/06 11:47:05;;;;;;;;;;;20.60;34.00;;;;;;500459;237;1302;-72
2021/03/06 11:49:06;;;;;;;;;;;20.60;34.10;;;;;;500265;237;998;-72
2021/03/06 11:51:08;;;;;;;;;;;20.60;34.00;;;;;;500282;237;1292;-72
2021/03/06 11:53:09;;;;;;;;;;;20.60;34.00;;;;;;500317;237;941;-73
2021/03/06 11:55:10;;;;;;;;;;;20.70;33.90;;;;;;500238;237;1002;-72
2021/03/06 11:57:12;;;;;;;;;;;20.70;33.80;;;;;;500303;237;1095;-72
2021/03/06 11:59:13;;;;;;;;;;;20.70;33.90;;;;;;500340;237;941;-72